Time;durP1;ratioP1;P1;durP2;ratioP2;P2;SDS_P1;SDS_P2;PMS_P1;PMS_P2;Temp;Humidity;BMP_temperature;BMP_pressure;BME280_temperature;BME280_humidity;BME280_pressure;Samples;Min_cycle;Max_cycle;Signal;HPM_P1;HPM_P2
2022/04/03 00:02:05;;;;;;;11.35;5.60;;;;;;;;;;4954860;29;20031;-70
2022/04/03 00:04:32;;;;;;;7.90;5.05;;;;;;;;;;4954899;29;20035;-70
2022/04/03 00:06:59;;;;;;;11.13;5.43;;;;;;;;;;4954502;29;20033;-70
2022/04/03 00:09:26;;;;;;;10.63;5.80;;;;;;;;;;4954479;29;20023;-70
2022/04/03 00:11:52;;;;;;;10.32;5.28;;;;;;;;;;4954658;29;20037;-70
2022/04/03 00:14:18;;;;;;;9.88;5.47;;;;;;;;;;4955016;29;20029;-70
2022/04/03 00:16:45;;;;;;;11.68;5.13;;;;;;;;;;4954533;29;20031;-70
2022/04/03 00:19:11;;;;;;;13.90;7.20;;;;;;;;;;4940219;29;20031;-70
2022/04/03 00:21:38;;;;;;;13.52;6.75;;;;;;;;;;4947758;29;20031;-70
2022/04/03 00:24:05;;;;;;;10.32;6.43;;;;;;;;;;4954157;29;20031;-70
2022/04/03 00:26:32;;;;;;;12.05;6.80;;;;;;;;;;4953985;29;20035;-70
2022/04/03 00:28:58;;;;;;;11.45;5.88;;;;;;;;;;4954948;29;20558;-70
2022/04/03 00:31:24;;;;;;;11.45;6.57;;;;;;;;;;4954071;29;20038;-70
2022/04/03 00:33:51;;;;;;;15.40;7.00;;;;;;;;;;4954017;29;20019;-70
2022/04/03 00:36:17;;;;;;;10.55;5.78;;;;;;;;;;4954064;29;20041;-70
2022/04/03 00:38:45;;;;;;;11.45;6.20;;;;;;;;;;4947642;29;20024;-70
2022/04/03 00:41:12;;;;;;;10.45;6.65;;;;;;;;;;4954646;29;20027;-69
2022/04/03 00:43:38;;;;;;;10.80;5.93;;;;;;;;;;4954344;29;20571;-70
2022/04/03 00:46:05;;;;;;;10.50;6.45;;;;;;;;;;4938221;29;20032;-70
2022/04/03 00:48:32;;;;;;;10.45;6.38;;;;;;;;;;4954024;29;20035;-70
2022/04/03 00:50:58;;;;;;;8.75;5.60;;;;;;;;;;4953821;29;20032;-70
2022/04/03 00:53:25;;;;;;;12.00;5.15;;;;;;;;;;4945296;29;20028;-70
2022/04/03 00:55:51;;;;;;;15.07;6.28;;;;;;;;;;4953892;28;20069;-70
2022/04/03 00:58:18;;;;;;;10.85;5.70;;;;;;;;;;4953701;29;20027;-70
2022/04/03 01:00:44;;;;;;;10.93;5.20;;;;;;;;;;4953386;29;20023;-70
2022/04/03 01:03:10;;;;;;;10.00;5.30;;;;;;;;;;4953434;29;20051;-70
2022/04/03 01:05:37;;;;;;;8.50;4.97;;;;;;;;;;4953632;29;20019;-70
2022/04/03 01:08:04;;;;;;;10.18;4.78;;;;;;;;;;4954003;29;20034;-70
2022/04/03 01:10:30;;;;;;;7.82;4.50;;;;;;;;;;4954024;29;20026;-70
2022/04/03 01:12:56;;;;;;;8.07;4.13;;;;;;;;;;4953815;29;20101;-70
2022/04/03 01:15:23;;;;;;;6.03;4.40;;;;;;;;;;4952975;29;20028;-70
2022/04/03 01:17:49;;;;;;;7.22;4.80;;;;;;;;;;4953449;29;20410;-69
2022/04/03 01:20:17;;;;;;;8.00;4.20;;;;;;;;;;4953784;29;20539;-69
2022/04/03 01:22:43;;;;;;;8.48;5.18;;;;;;;;;;4953757;29;20046;-70
2022/04/03 01:25:10;;;;;;;10.10;5.47;;;;;;;;;;4939203;29;20047;-70
2022/04/03 01:27:37;;;;;;;6.05;4.35;;;;;;;;;;4961229;28;20519;-69
2022/04/03 01:30:04;;;;;;;7.43;4.80;;;;;;;;;;4952822;29;20035;-70
2022/04/03 01:32:31;;;;;;;15.43;6.20;;;;;;;;;;4965489;28;20031;-70
2022/04/03 01:34:57;;;;;;;16.17;7.88;;;;;;;;;;4957365;28;20510;-69
2022/04/03 01:37:23;;;;;;;11.68;5.80;;;;;;;;;;4960520;28;20034;-70
2022/04/03 01:39:50;;;;;;;7.07;4.60;;;;;;;;;;4960370;28;20081;-69
2022/04/03 01:42:16;;;;;;;11.77;5.32;;;;;;;;;;4952949;29;20101;-71
2022/04/03 01:44:43;;;;;;;6.15;4.28;;;;;;;;;;4966642;28;20451;-69
2022/04/03 01:47:09;;;;;;;8.38;4.20;;;;;;;;;;4955306;28;20031;-70
2022/04/03 01:49:35;;;;;;;8.73;4.65;;;;;;;;;;4957769;28;20031;-70
2022/04/03 01:52:02;;;;;;;6.22;4.55;;;;;;;;;;4957226;28;20022;-69
2022/04/03 01:54:28;;;;;;;5.03;4.05;;;;;;;;;;4964570;28;20026;-70
2022/04/03 01:56:55;;;;;;;6.65;4.25;;;;;;;;;;4952459;29;20053;-70
2022/04/03 01:59:22;;;;;;;5.97;3.45;;;;;;;;;;4964585;28;20023;-70
2022/04/03 02:01:48;;;;;;;4.90;3.65;;;;;;;;;;4958142;28;20031;-70
2022/04/03 02:04:14;;;;;;;7.28;4.32;;;;;;;;;;4958685;28;20039;-71
2022/04/03 02:06:41;;;;;;;7.07;4.32;;;;;;;;;;4963528;28;20020;-70
2022/04/03 02:09:10;;;;;;;5.47;3.80;;;;;;;;;;4959160;29;20041;-70
2022/04/03 02:11:38;;;;;;;7.40;4.07;;;;;;;;;;4972228;28;20030;-71
2022/04/03 02:14:05;;;;;;;6.18;3.70;;;;;;;;;;4962085;28;20066;-70
2022/04/03 02:16:31;;;;;;;7.28;3.47;;;;;;;;;;4967904;28;20085;-71
2022/04/03 02:18:57;;;;;;;5.32;3.60;;;;;;;;;;4966758;28;20396;-70
2022/04/03 02:21:24;;;;;;;5.38;3.40;;;;;;;;;;4958913;28;20072;-70
2022/04/03 02:23:51;;;;;;;7.45;3.97;;;;;;;;;;4974131;28;20031;-70
2022/04/03 02:26:18;;;;;;;6.38;3.78;;;;;;;;;;4959644;28;20508;-70
2022/04/03 02:28:44;;;;;;;7.68;4.32;;;;;;;;;;4969448;28;20041;-70
2022/04/03 02:31:11;;;;;;;6.07;4.10;;;;;;;;;;4965016;28;20114;-70
2022/04/03 02:33:37;;;;;;;5.25;3.72;;;;;;;;;;4960268;28;20086;-70
2022/04/03 02:36:04;;;;;;;9.32;3.85;;;;;;;;;;4973630;28;20014;-70
2022/04/03 02:38:30;;;;;;;6.50;4.00;;;;;;;;;;4958851;29;20578;-70
2022/04/03 02:40:56;;;;;;;6.13;3.50;;;;;;;;;;4970821;28;20052;-70
2022/04/03 02:43:23;;;;;;;5.63;3.53;;;;;;;;;;4963172;28;20047;-70
2022/04/03 02:45:50;;;;;;;5.70;3.97;;;;;;;;;;4961563;28;20089;-70
2022/04/03 02:48:16;;;;;;;6.30;3.50;;;;;;;;;;4971854;28;20033;-70
2022/04/03 02:50:42;;;;;;;6.70;4.03;;;;;;;;;;4958750;29;20027;-70
2022/04/03 02:53:09;;;;;;;4.80;3.72;;;;;;;;;;4970871;28;20026;-70
2022/04/03 02:55:35;;;;;;;4.85;3.50;;;;;;;;;;4963907;28;20031;-70
2022/04/03 02:58:01;;;;;;;6.43;3.60;;;;;;;;;;4962922;28;20027;-70
2022/04/03 03:00:29;;;;;;;5.13;3.60;;;;;;;;;;4970057;28;20027;-70
2022/04/03 03:02:56;;;;;;;6.25;4.07;;;;;;;;;;4954712;29;20046;-70
2022/04/03 03:05:23;;;;;;;5.72;4.00;;;;;;;;;;4970284;28;20023;-70
2022/04/03 03:07:49;;;;;;;5.22;3.90;;;;;;;;;;4963765;28;20027;-70
2022/04/03 03:10:17;;;;;;;9.07;3.80;;;;;;;;;;4964426;28;20396;-70
2022/04/03 03:12:44;;;;;;;4.90;3.67;;;;;;;;;;4967870;28;20038;-70
2022/04/03 03:15:11;;;;;;;5.22;3.70;;;;;;;;;;4958245;28;20489;-70
2022/04/03 03:17:38;;;;;;;6.55;3.88;;;;;;;;;;4971938;28;20444;-70
2022/04/03 03:20:05;;;;;;;6.40;3.60;;;;;;;;;;4957559;28;20041;-70
2022/04/03 03:22:32;;;;;;;5.13;3.67;;;;;;;;;;4964385;28;20033;-70
2022/04/03 03:24:58;;;;;;;7.82;3.88;;;;;;;;;;4962493;28;20057;-70
2022/04/03 03:27:25;;;;;;;6.13;3.90;;;;;;;;;;4954464;29;20041;-70
2022/04/03 03:29:51;;;;;;;7.03;4.03;;;;;;;;;;4955133;29;20027;-70
2022/04/03 03:32:18;;;;;;;6.35;3.83;;;;;;;;;;4967184;28;20037;-70
2022/04/03 03:34:44;;;;;;;5.53;4.20;;;;;;;;;;4960416;28;20097;-70
2022/04/03 03:37:10;;;;;;;5.10;4.10;;;;;;;;;;4960298;28;20023;-70
2022/04/03 03:39:37;;;;;;;7.20;4.07;;;;;;;;;;4965329;28;20064;-69
2022/04/03 03:42:03;;;;;;;5.85;4.30;;;;;;;;;;4954977;29;20046;-71
2022/04/03 03:44:29;;;;;;;5.38;4.30;;;;;;;;;;4967404;28;20477;-71
2022/04/03 03:46:56;;;;;;;4.95;3.90;;;;;;;;;;4942296;29;20055;-70
2022/04/03 03:49:23;;;;;;;6.32;4.68;;;;;;;;;;4961628;28;20039;-70
2022/04/03 03:51:49;;;;;;;5.45;4.15;;;;;;;;;;4963567;28;20035;-70
2022/04/03 03:54:16;;;;;;;8.65;4.35;;;;;;;;;;4954289;29;20039;-70
2022/04/03 03:56:42;;;;;;;5.82;4.60;;;;;;;;;;4968779;28;20407;-70
2022/04/03 03:59:08;;;;;;;8.50;5.00;;;;;;;;;;4957363;28;20030;-70
2022/04/03 04:01:35;;;;;;;7.07;4.63;;;;;;;;;;4959411;28;20412;-70
2022/04/03 04:04:01;;;;;;;5.57;4.35;;;;;;;;;;4958787;28;20045;-70
2022/04/03 04:06:28;;;;;;;6.45;4.53;;;;;;;;;;4966071;28;20011;-70
2022/04/03 04:08:55;;;;;;;7.22;4.90;;;;;;;;;;4954312;29;20093;-70
2022/04/03 04:11:21;;;;;;;5.63;4.45;;;;;;;;;;4966353;28;20032;-70
2022/04/03 04:13:47;;;;;;;7.93;3.88;;;;;;;;;;4942926;29;20403;-70
2022/04/03 04:16:14;;;;;;;8.15;5.18;;;;;;;;;;4960316;28;20041;-70
2022/04/03 04:18:40;;;;;;;7.22;4.97;;;;;;;;;;4964174;28;20065;-70
2022/04/03 04:21:06;;;;;;;7.20;5.40;;;;;;;;;;4954193;29;20023;-70
2022/04/03 04:23:33;;;;;;;7.05;5.05;;;;;;;;;;4966843;28;20400;-70
2022/04/03 04:25:59;;;;;;;9.38;5.00;;;;;;;;;;4957860;28;20504;-70
2022/04/03 04:28:26;;;;;;;10.13;5.35;;;;;;;;;;4961989;28;20027;-70
2022/04/03 04:30:52;;;;;;;11.10;6.22;;;;;;;;;;4962435;28;20027;-70
2022/04/03 04:33:19;;;;;;;6.78;4.88;;;;;;;;;;4954009;29;20443;-70
2022/04/03 04:35:45;;;;;;;7.72;5.38;;;;;;;;;;4968476;28;20774;-70
2022/04/03 04:38:11;;;;;;;7.25;5.47;;;;;;;;;;4955984;28;20035;-70
2022/04/03 04:40:38;;;;;;;7.82;5.22;;;;;;;;;;4958655;28;20023;-70
2022/04/03 04:43:04;;;;;;;8.15;5.70;;;;;;;;;;4958286;28;20042;-70
2022/04/03 04:45:30;;;;;;;11.00;5.47;;;;;;;;;;4965036;28;20023;-70
2022/04/03 04:47:59;;;;;;;8.75;5.25;;;;;;;;;;4954157;29;20046;-70
2022/04/03 04:50:27;;;;;;;7.13;4.88;;;;;;;;;;4965689;28;20035;-70
2022/04/03 04:52:54;;;;;;;7.93;4.97;;;;;;;;;;4958393;28;20034;-70
2022/04/03 04:55:20;;;;;;;7.82;5.18;;;;;;;;;;4960613;28;20069;-70
2022/04/03 04:57:51;;;;;;;7.88;5.75;;;;;;;;;;4962657;28;20015;-70
2022/04/03 05:00:17;;;;;;;7.20;5.45;;;;;;;;;;4953610;29;20031;-70
2022/04/03 05:02:46;;;;;;;7.20;5.03;;;;;;;;;;4967662;28;20032;-70
2022/04/03 05:05:17;;;;;;;9.55;5.72;;;;;;;;;;4938018;29;20023;-70
2022/04/03 05:07:44;;;;;;;8.00;5.25;;;;;;;;;;4958341;28;20026;-70
2022/04/03 05:10:14;;;;;;;8.30;5.95;;;;;;;;;;4959062;28;20069;-70
2022/04/03 05:12:41;;;;;;;7.70;5.63;;;;;;;;;;4963225;28;20086;-70
2022/04/03 05:15:10;;;;;;;8.02;5.93;;;;;;;;;;4953143;29;20028;-70
2022/04/03 05:17:37;;;;;;;6.93;5.72;;;;;;;;;;4966865;28;20027;-70
2022/04/03 05:20:03;;;;;;;8.05;5.68;;;;;;;;;;4955941;28;20029;-70
2022/04/03 05:22:30;;;;;;;8.38;5.93;;;;;;;;;;4945992;28;20041;-70
2022/04/03 05:24:56;;;;;;;8.20;5.95;;;;;;;;;;4960904;28;20040;-70
2022/04/03 05:27:24;;;;;;;8.82;5.50;;;;;;;;;;4952886;29;20047;-70
2022/04/03 05:29:51;;;;;;;8.05;5.50;;;;;;;;;;4968272;28;20027;-70
2022/04/03 05:32:28;;;;;;;6.90;5.00;;;;;;;;;;4954356;28;20023;-70
2022/04/03 05:34:55;;;;;;;8.02;4.82;;;;;;;;;;4961366;28;20043;-70
2022/04/03 05:37:21;;;;;;;11.57;5.68;;;;;;;;;;4957721;28;20027;-70
2022/04/03 05:39:48;;;;;;;9.05;4.88;;;;;;;;;;4955367;28;20027;-70
2022/04/03 05:42:14;;;;;;;8.15;5.07;;;;;;;;;;4965874;28;20026;-70
2022/04/03 05:44:41;;;;;;;7.15;5.28;;;;;;;;;;4935886;29;20046;-70
2022/04/03 05:47:07;;;;;;;8.60;5.20;;;;;;;;;;4964750;28;20027;-70
2022/04/03 05:49:34;;;;;;;8.38;5.70;;;;;;;;;;4957762;28;20062;-70
2022/04/03 05:52:00;;;;;;;9.82;6.07;;;;;;;;;;4956854;28;20026;-70
2022/04/03 05:54:26;;;;;;;9.73;5.95;;;;;;;;;;4964766;28;20031;-70
2022/04/03 05:56:53;;;;;;;9.57;5.75;;;;;;;;;;4952948;29;20030;-70
2022/04/03 05:59:19;;;;;;;14.82;7.63;;;;;;;;;;4964646;28;20015;-70
2022/04/03 06:01:49;;;;;;;9.70;5.55;;;;;;;;;;4957947;28;20495;-70
2022/04/03 06:04:16;;;;;;;7.55;5.63;;;;;;;;;;4958328;28;20031;-70
2022/04/03 06:06:42;;;;;;;7.13;5.35;;;;;;;;;;4942049;29;20023;-70
2022/04/03 06:09:09;;;;;;;8.68;5.70;;;;;;;;;;4943520;29;20035;-71
2022/04/03 06:11:35;;;;;;;8.38;5.53;;;;;;;;;;4966006;28;20031;-70
2022/04/03 06:14:02;;;;;;;11.35;5.97;;;;;;;;;;4956046;28;20023;-71
2022/04/03 06:16:28;;;;;;;7.70;5.68;;;;;;;;;;4960877;28;20022;-70
2022/04/03 06:18:55;;;;;;;7.20;5.57;;;;;;;;;;4960513;28;20027;-70
2022/04/03 06:21:21;;;;;;;7.53;5.90;;;;;;;;;;4952754;29;20030;-70
2022/04/03 06:23:48;;;;;;;7.28;5.45;;;;;;;;;;4967232;28;20027;-70
2022/04/03 06:26:15;;;;;;;7.97;5.93;;;;;;;;;;4954037;28;20053;-70
2022/04/03 06:28:42;;;;;;;7.68;5.45;;;;;;;;;;4962648;28;20035;-70
2022/04/03 06:31:09;;;;;;;7.85;5.85;;;;;;;;;;4958510;28;20027;-70
2022/04/03 06:33:35;;;;;;;9.07;5.95;;;;;;;;;;4953013;28;20050;-70
2022/04/03 06:36:02;;;;;;;8.63;5.53;;;;;;;;;;4967436;28;20515;-70
2022/04/03 06:38:29;;;;;;;8.40;5.82;;;;;;;;;;4952573;29;20027;-70
2022/04/03 06:40:57;;;;;;;8.95;5.47;;;;;;;;;;4952312;29;20031;-70
2022/04/03 06:43:28;;;;;;;9.13;5.68;;;;;;;;;;4960022;28;20039;-70
2022/04/03 06:45:55;;;;;;;6.97;5.75;;;;;;;;;;4960288;28;20027;-70
2022/04/03 06:48:22;;;;;;;7.78;5.47;;;;;;;;;;4951989;29;20038;-71
2022/04/03 06:50:48;;;;;;;8.70;5.93;;;;;;;;;;4967100;28;20492;-70
2022/04/03 06:53:14;;;;;;;7.43;5.72;;;;;;;;;;4953783;28;20031;-70
2022/04/03 06:55:41;;;;;;;8.07;6.22;;;;;;;;;;4960315;28;20019;-70
2022/04/03 06:58:07;;;;;;;8.50;6.47;;;;;;;;;;4960985;28;20041;-70
2022/04/03 07:00:35;;;;;;;9.13;6.30;;;;;;;;;;4949308;29;20031;-70
2022/04/03 07:03:01;;;;;;;9.13;6.30;;;;;;;;;;4955373;29;20035;-71
2022/04/03 07:05:27;;;;;;;7.25;5.97;;;;;;;;;;4968043;28;20032;-70
2022/04/03 07:07:54;;;;;;;8.05;6.38;;;;;;;;;;4960626;28;20030;-70
2022/04/03 07:10:21;;;;;;;10.27;6.82;;;;;;;;;;4962458;28;20031;-70
2022/04/03 07:12:47;;;;;;;8.75;6.18;;;;;;;;;;4964674;28;20093;-70
2022/04/03 07:15:13;;;;;;;9.18;6.68;;;;;;;;;;4937683;29;20489;-70
2022/04/03 07:17:40;;;;;;;7.00;5.50;;;;;;;;;;4969485;28;20027;-71
2022/04/03 07:20:07;;;;;;;6.50;5.47;;;;;;;;;;4958143;28;20392;-70
2022/04/03 07:22:34;;;;;;;7.78;5.70;;;;;;;;;;4964354;28;20403;-71
2022/04/03 07:25:00;;;;;;;9.23;6.30;;;;;;;;;;4929430;29;20058;-71
2022/04/03 07:27:27;;;;;;;8.90;5.90;;;;;;;;;;4955390;29;20024;-70
2022/04/03 07:29:53;;;;;;;6.97;5.25;;;;;;;;;;4970913;28;20034;-70
2022/04/03 07:32:20;;;;;;;7.95;5.93;;;;;;;;;;4955922;28;20021;-70
2022/04/03 07:34:46;;;;;;;7.00;5.40;;;;;;;;;;4960006;28;20039;-70
2022/04/03 07:37:12;;;;;;;7.82;5.43;;;;;;;;;;4961004;28;20026;-70
2022/04/03 07:39:39;;;;;;;7.70;5.75;;;;;;;;;;4965368;28;20020;-70
2022/04/03 07:42:05;;;;;;;7.53;6.13;;;;;;;;;;4955374;29;20027;-70
2022/04/03 07:44:31;;;;;;;9.52;6.65;;;;;;;;;;4967660;28;20039;-70
2022/04/03 07:46:58;;;;;;;7.85;5.72;;;;;;;;;;4959096;28;20027;-70
2022/04/03 07:49:24;;;;;;;9.38;5.97;;;;;;;;;;4962667;28;20037;-70
2022/04/03 07:51:50;;;;;;;7.60;5.80;;;;;;;;;;4963544;28;20035;-70
2022/04/03 07:54:17;;;;;;;9.13;5.70;;;;;;;;;;4941585;29;20046;-70
2022/04/03 07:56:43;;;;;;;9.70;5.60;;;;;;;;;;4954786;29;20027;-70
2022/04/03 07:59:10;;;;;;;6.32;4.80;;;;;;;;;;4966924;28;20031;-70
2022/04/03 08:01:36;;;;;;;7.60;5.90;;;;;;;;;;4959646;28;20498;-70
2022/04/03 08:04:03;;;;;;;9.02;6.18;;;;;;;;;;4959116;28;20527;-70
2022/04/03 08:06:29;;;;;;;7.53;5.60;;;;;;;;;;4965565;28;20411;-70
2022/04/03 08:08:56;;;;;;;6.90;5.80;;;;;;;;;;4954769;29;20031;-70
2022/04/03 08:11:22;;;;;;;7.22;5.82;;;;;;;;;;4966656;28;20027;-70
2022/04/03 08:13:49;;;;;;;8.75;6.03;;;;;;;;;;4959288;28;20126;-70
2022/04/03 08:16:16;;;;;;;8.75;6.13;;;;;;;;;;4960743;28;20026;-70
2022/04/03 08:18:43;;;;;;;9.02;6.05;;;;;;;;;;4964088;28;20027;-70
2022/04/03 08:21:10;;;;;;;9.93;5.85;;;;;;;;;;4954428;29;20024;-70
2022/04/03 08:23:37;;;;;;;8.05;5.03;;;;;;;;;;4967816;28;20038;-70
2022/04/03 08:26:04;;;;;;;7.80;5.85;;;;;;;;;;4957281;28;20500;-70
2022/04/03 08:28:31;;;;;;;7.55;5.82;;;;;;;;;;4962453;28;20027;-70
2022/04/03 08:30:57;;;;;;;9.43;5.60;;;;;;;;;;4961983;28;20023;-70
2022/04/03 08:33:24;;;;;;;8.00;6.18;;;;;;;;;;4954173;29;20035;-70
2022/04/03 08:35:51;;;;;;;9.13;6.20;;;;;;;;;;4969199;28;20033;-70
2022/04/03 08:38:18;;;;;;;9.32;5.65;;;;;;;;;;4955648;28;20019;-71
2022/04/03 08:40:45;;;;;;;6.75;5.38;;;;;;;;;;4964589;28;20034;-70
2022/04/03 08:43:12;;;;;;;7.38;6.10;;;;;;;;;;4959319;28;20050;-70
2022/04/03 08:45:39;;;;;;;8.13;5.75;;;;;;;;;;4955456;28;20019;-70
2022/04/03 08:48:06;;;;;;;8.73;5.82;;;;;;;;;;4967275;28;20030;-70
2022/04/03 08:50:34;;;;;;;7.00;5.40;;;;;;;;;;4953833;29;20038;-70
2022/04/03 08:53:01;;;;;;;6.63;4.90;;;;;;;;;;4966225;28;20038;-70
2022/04/03 08:55:28;;;;;;;7.70;5.50;;;;;;;;;;4957621;28;20034;-70
2022/04/03 08:57:55;;;;;;;7.25;5.32;;;;;;;;;;4957142;28;20027;-70
2022/04/03 09:00:21;;;;;;;7.70;5.57;;;;;;;;;;4966611;28;20031;-70
2022/04/03 09:02:50;;;;;;;8.07;5.50;;;;;;;;;;4953893;29;20023;-70
2022/04/03 09:05:16;;;;;;;5.63;5.03;;;;;;;;;;4965392;28;20062;-70
2022/04/03 09:07:43;;;;;;;7.05;5.50;;;;;;;;;;4958656;28;20027;-70
2022/04/03 09:10:13;;;;;;;7.20;5.28;;;;;;;;;;4958949;28;20031;-70
2022/04/03 09:12:50;;;;;;;6.97;5.60;;;;;;;;;;4963205;28;20031;-70
2022/04/03 09:15:17;;;;;;;6.78;5.15;;;;;;;;;;4953668;29;20039;-70
2022/04/03 09:17:49;;;;;;;7.90;5.32;;;;;;;;;;4950885;28;20027;-70
2022/04/03 09:20:17;;;;;;;10.77;4.55;;;;;;;;;;4954868;28;20074;-70
2022/04/03 09:22:46;;;;;;;8.82;5.63;;;;;;;;;;4963694;28;20038;-70
2022/04/03 09:25:17;;;;;;;7.05;5.05;;;;;;;;;;4958834;28;20419;-70
2022/04/03 09:27:44;;;;;;;;;;;;;;;;;;4955395;28;20023;-70
2022/04/03 09:30:10;;;;;;;9.23;6.15;;;;;;;;;;4967134;28;19916;-71
2022/04/03 09:32:46;;;;;;;8.13;5.28;;;;;;;;;;4953283;29;20023;-70
2022/04/03 09:35:13;;;;;;;7.25;5.53;;;;;;;;;;4965083;28;20027;-70
2022/04/03 09:37:39;;;;;;;7.82;5.47;;;;;;;;;;4958348;28;20035;-70
2022/04/03 09:40:06;;;;;;;7.05;5.22;;;;;;;;;;4958227;28;20030;-70
2022/04/03 09:42:32;;;;;;;6.95;5.53;;;;;;;;;;4963636;28;20431;-70
2022/04/03 09:44:58;;;;;;;5.20;4.53;;;;;;;;;;4953078;29;20031;-70
2022/04/03 09:47:33;;;;;;;6.35;4.80;;;;;;;;;;4965017;28;20023;-70
2022/04/03 09:50:01;;;;;;;6.18;4.82;;;;;;;;;;4956887;28;20026;-70
2022/04/03 09:52:33;;;;;;;5.60;4.50;;;;;;;;;;4961312;28;20038;-70
2022/04/03 09:55:00;;;;;;;6.18;5.05;;;;;;;;;;4960379;28;20031;-70
2022/04/03 09:57:26;;;;;;;6.82;5.00;;;;;;;;;;4952634;29;20554;-70
2022/04/03 09:59:55;;;;;;;5.45;4.63;;;;;;;;;;4968285;28;20038;-70
2022/04/03 10:02:24;;;;;;;4.93;4.43;;;;;;;;;;4953608;28;20019;-70
2022/04/03 10:04:50;;;;;;;5.47;4.60;;;;;;;;;;4952705;29;20031;-70
2022/04/03 10:07:17;;;;;;;5.63;4.78;;;;;;;;;;4959214;28;20038;-70
2022/04/03 10:09:53;;;;;;;10.55;4.75;;;;;;;;;;4962296;28;20027;-70
2022/04/03 10:12:21;;;;;;;7.07;5.03;;;;;;;;;;4952921;29;20027;-70
2022/04/03 10:14:49;;;;;;;6.68;4.80;;;;;;;;;;4967880;28;20116;-70
2022/04/03 10:17:17;;;;;;;5.22;4.43;;;;;;;;;;4954113;28;24184;-70
2022/04/03 10:19:43;;;;;;;5.40;4.30;;;;;;;;;;4957476;28;20035;-70
2022/04/03 10:22:22;;;;;;;5.68;4.63;;;;;;;;;;4958192;28;20077;-70
2022/04/03 10:24:50;;;;;;;5.70;4.40;;;;;;;;;;4960951;28;20047;-70
2022/04/03 10:27:19;;;;;;;5.55;4.65;;;;;;;;;;4950791;28;20035;-70
2022/04/03 10:29:48;;;;;;;5.95;4.85;;;;;;;;;;4970847;28;20073;-70
2022/04/03 10:32:27;;;;;;;6.93;4.90;;;;;;;;;;4941087;29;20427;-70
2022/04/03 10:34:56;;;;;;;6.25;4.82;;;;;;;;;;4968618;28;20030;-70
2022/04/03 10:37:33;;;;;;;5.40;4.28;;;;;;;;;;4961220;28;20024;-70
2022/04/03 10:40:04;;;;;;;4.90;4.40;;;;;;;;;;4960059;28;20019;-70
2022/04/03 10:42:30;;;;;;;5.65;4.60;;;;;;;;;;4967598;28;20031;-70
2022/04/03 10:45:12;;;;;;;5.80;4.75;;;;;;;;;;4956261;29;20392;-70
2022/04/03 10:47:45;;;;;;;7.10;5.18;;;;;;;;;;4942908;29;20028;-70
2022/04/03 10:50:11;;;;;;;5.75;5.03;;;;;;;;;;4968258;28;20027;-70
2022/04/03 10:52:38;;;;;;;6.97;5.35;;;;;;;;;;4961261;28;20023;-70
2022/04/03 10:55:18;;;;;;;5.65;4.70;;;;;;;;;;4960378;28;20403;-70
2022/04/03 10:57:44;;;;;;;8.43;5.72;;;;;;;;;;4965508;28;20477;-70
2022/04/03 11:00:11;;;;;;;6.97;4.88;;;;;;;;;;4955997;29;20027;-70
2022/04/03 11:02:37;;;;;;;8.60;6.18;;;;;;;;;;4969100;28;20500;-70
2022/04/03 11:05:22;;;;;;;6.93;5.55;;;;;;;;;;4959323;28;20041;-70
2022/04/03 11:07:48;;;;;;;6.10;4.80;;;;;;;;;;4959729;28;20050;-70
2022/04/03 11:10:15;;;;;;;7.10;5.35;;;;;;;;;;4962146;28;20049;-70
2022/04/03 11:12:45;;;;;;;6.78;5.75;;;;;;;;;;4965851;28;20015;-70
2022/04/03 11:15:12;;;;;;;9.73;5.93;;;;;;;;;;4955899;29;20023;-70
2022/04/03 11:17:49;;;;;;;6.47;5.00;;;;;;;;;;4969258;28;20027;-70
2022/04/03 11:20:31;;;;;;;6.47;5.53;;;;;;;;;;4957168;28;20065;-70
2022/04/03 11:22:58;;;;;;;6.18;5.07;;;;;;;;;;4963999;28;20046;-70
2022/04/03 11:25:25;;;;;;;6.13;5.22;;;;;;;;;;4960263;28;20380;-70
2022/04/03 11:27:51;;;;;;;8.60;5.30;;;;;;;;;;4958319;28;20504;-70
2022/04/03 11:30:20;;;;;;;5.80;4.88;;;;;;;;;;4968571;28;20023;-70
2022/04/03 11:32:48;;;;;;;5.95;5.13;;;;;;;;;;4955401;29;20043;-70
2022/04/03 11:35:14;;;;;;;5.82;5.15;;;;;;;;;;4967243;28;20023;-70
2022/04/03 11:37:44;;;;;;;6.57;5.40;;;;;;;;;;4960197;28;20432;-70
2022/04/03 11:40:12;;;;;;;7.35;5.53;;;;;;;;;;4960293;28;20033;-70
2022/04/03 11:42:38;;;;;;;7.80;5.30;;;;;;;;;;4965382;28;20377;-70
2022/04/03 11:45:08;;;;;;;6.97;5.40;;;;;;;;;;4955271;29;20395;-70
2022/04/03 11:47:35;;;;;;;4.93;4.43;;;;;;;;;;4968500;28;20029;-70
2022/04/03 11:50:08;;;;;;;7.80;4.70;;;;;;;;;;4958809;28;20034;-70
2022/04/03 11:52:36;;;;;;;6.07;4.70;;;;;;;;;;4959553;28;20039;-70
2022/04/03 11:55:02;;;;;;;6.93;4.93;;;;;;;;;;4959488;28;20029;-70
2022/04/03 11:57:29;;;;;;;6.18;4.32;;;;;;;;;;4966856;28;20023;-70
2022/04/03 11:59:55;;;;;;;4.97;3.90;;;;;;;;;;4955116;29;20489;-70
2022/04/03 12:02:21;;;;;;;4.97;4.07;;;;;;;;;;4966758;28;20023;-70
2022/04/03 12:04:48;;;;;;;7.15;4.22;;;;;;;;;;4959974;28;20039;-70
2022/04/03 12:07:14;;;;;;;6.15;4.45;;;;;;;;;;4960831;28;20033;-70
2022/04/03 12:09:44;;;;;;;5.07;3.80;;;;;;;;;;4964680;28;20480;-70
2022/04/03 12:12:11;;;;;;;9.00;3.58;;;;;;;;;;4954858;29;20028;-70
2022/04/03 12:14:41;;;;;;;7.25;4.70;;;;;;;;;;4967890;28;20031;-70
2022/04/03 12:17:08;;;;;;;5.03;4.07;;;;;;;;;;4957328;28;20028;-70
2022/04/03 12:19:36;;;;;;;5.18;4.30;;;;;;;;;;4963885;28;20027;-70
2022/04/03 12:22:08;;;;;;;4.43;3.50;;;;;;;;;;4961169;28;20019;-70
2022/04/03 12:24:35;;;;;;;5.88;4.07;;;;;;;;;;4954237;29;20035;-70
2022/04/03 12:27:05;;;;;;;4.85;3.92;;;;;;;;;;4954454;29;20049;-70
2022/04/03 12:29:32;;;;;;;4.40;3.90;;;;;;;;;;4954920;29;20043;-70
2022/04/03 12:32:12;;;;;;;4.60;3.47;;;;;;;;;;4955025;29;20096;-70
2022/04/03 12:34:40;;;;;;;5.20;3.67;;;;;;;;;;4953307;29;20037;-70
2022/04/03 12:37:08;;;;;;;4.75;3.83;;;;;;;;;;4953961;29;20027;-70
2022/04/03 12:39:36;;;;;;;4.95;3.65;;;;;;;;;;4954359;29;20019;-69
2022/04/03 12:42:08;;;;;;;6.32;3.67;;;;;;;;;;4954282;29;20038;-69
2022/04/03 12:44:42;;;;;;;4.63;3.80;;;;;;;;;;4946370;29;20051;-70
2022/04/03 12:47:32;;;;;;;5.05;3.80;;;;;;;;;;4954800;29;20026;-70
2022/04/03 12:50:07;;;;;;;5.45;3.70;;;;;;;;;;4895180;29;20063;-70
2022/04/03 12:52:48;;;;;;;4.88;3.80;;;;;;;;;;4893353;29;20045;-69
2022/04/03 12:55:24;;;;;;;4.40;3.92;;;;;;;;;;4892395;29;20036;-69
2022/04/03 13:00:44;;;;;;;4.83;4.30;;;;;;;;;;4892407;29;20043;-70
2022/04/03 13:03:11;;;;;;;4.63;3.90;;;;;;;;;;4892320;29;20051;-69
2022/04/03 13:05:39;;;;;;;5.32;3.90;;;;;;;;;;4892142;29;20029;-69
2022/04/03 13:08:12;;;;;;;4.45;3.70;;;;;;;;;;4894475;29;20507;-70
2022/04/03 13:10:57;;;;;;;10.20;4.32;;;;;;;;;;4895265;29;20028;-69
2022/04/03 13:13:27;;;;;;;7.15;4.70;;;;;;;;;;4886524;29;20052;-70
2022/04/03 13:15:54;;;;;;;7.00;4.47;;;;;;;;;;4891994;29;20029;-70
2022/04/03 13:18:21;;;;;;;5.43;4.28;;;;;;;;;;4892072;29;20520;-69
2022/04/03 13:20:51;;;;;;;4.97;3.90;;;;;;;;;;4892190;29;20201;-70
2022/04/03 13:23:18;;;;;;;4.23;3.83;;;;;;;;;;4893279;29;20051;-70
2022/04/03 13:25:45;;;;;;;5.40;4.35;;;;;;;;;;4894111;29;20048;-70
2022/04/03 13:28:12;;;;;;;5.15;4.15;;;;;;;;;;4953594;29;20484;-69
2022/04/03 13:30:38;;;;;;;4.40;3.75;;;;;;;;;;4936766;29;20015;-70
2022/04/03 13:33:05;;;;;;;5.75;4.05;;;;;;;;;;4953332;29;20066;-69
2022/04/03 13:35:31;;;;;;;5.35;4.18;;;;;;;;;;4936227;29;20035;-70
2022/04/03 13:37:58;;;;;;;4.82;4.25;;;;;;;;;;4953417;29;20510;-70
2022/04/03 13:40:25;;;;;;;8.30;4.15;;;;;;;;;;4948842;29;20470;-69
2022/04/03 13:42:51;;;;;;;5.78;4.07;;;;;;;;;;4948765;29;20027;-70
2022/04/03 13:45:18;;;;;;;7.93;4.25;;;;;;;;;;4952666;29;20054;-70
2022/04/03 13:47:44;;;;;;;4.63;4.05;;;;;;;;;;4952615;29;20023;-69
2022/04/03 13:50:10;;;;;;;5.03;3.92;;;;;;;;;;4953507;29;20027;-70
2022/04/03 13:52:37;;;;;;;5.85;4.55;;;;;;;;;;4953482;29;20480;-70
2022/04/03 13:55:03;;;;;;;4.70;4.10;;;;;;;;;;4936018;29;20031;-70
2022/04/03 13:57:30;;;;;;;7.28;4.88;;;;;;;;;;4953186;29;20027;-70
2022/04/03 13:59:56;;;;;;;4.82;4.00;;;;;;;;;;4953140;29;20030;-70
2022/04/03 14:02:23;;;;;;;4.68;3.92;;;;;;;;;;4952686;29;20032;-70
2022/04/03 14:04:49;;;;;;;5.82;4.32;;;;;;;;;;4953445;29;20041;-69
2022/04/03 14:07:16;;;;;;;6.53;4.93;;;;;;;;;;4953094;29;20027;-69
2022/04/03 14:09:42;;;;;;;6.30;4.82;;;;;;;;;;4953048;28;20037;-69
2022/04/03 14:12:09;;;;;;;6.10;4.70;;;;;;;;;;4953053;29;20023;-70
2022/04/03 14:14:35;;;;;;;5.25;4.57;;;;;;;;;;4953175;29;20023;-69
2022/04/03 14:17:01;;;;;;;7.32;4.45;;;;;;;;;;4953174;29;20472;-70
2022/04/03 14:19:27;;;;;;;6.75;5.00;;;;;;;;;;4953583;29;20035;-70
2022/04/03 14:21:54;;;;;;;5.97;4.75;;;;;;;;;;4953121;29;20039;-69
2022/04/03 14:24:21;;;;;;;5.38;4.50;;;;;;;;;;4952797;29;20045;-70
2022/04/03 14:26:47;;;;;;;6.22;5.18;;;;;;;;;;4952789;29;20040;-70
2022/04/03 14:29:13;;;;;;;7.63;4.80;;;;;;;;;;4953264;29;20034;-69
2022/04/03 14:31:40;;;;;;;5.65;4.57;;;;;;;;;;4953385;29;20023;-70
2022/04/03 14:34:06;;;;;;;6.82;5.22;;;;;;;;;;4952850;29;20023;-70
2022/04/03 14:36:33;;;;;;;5.50;4.90;;;;;;;;;;4952650;29;20484;-69
2022/04/03 14:38:59;;;;;;;5.50;4.85;;;;;;;;;;4953065;29;20505;-69
2022/04/03 14:41:25;;;;;;;5.25;4.18;;;;;;;;;;4953274;29;20091;-70
2022/04/03 14:43:53;;;;;;;5.38;4.20;;;;;;;;;;4953374;29;20090;-69
2022/04/03 14:46:21;;;;;;;6.28;4.95;;;;;;;;;;4952404;29;20029;-69